Terminal Aerodrome Forecast
Issued by NWS

Current Version | Previous Version | Graphics & Text | Print | Product List | Glossary On
Versions: 1 2 3 4 5 6 7 8 9 10 11 12 13 14 15 16 17 18 19 20 21 22 23 24 25 26 27 28
000
FTUS41 KILN 061044 AAC
TAFLUK
TAF AMD
KLUK 061044Z 0611/0706 VRB03KT 4SM BR FEW060
      TEMPO 0611/0613 1SM BR
     FM061400 34009KT P6SM SCT050
     FM062000 32007KT P6SM FEW050
     FM070200 27002KT P6SM FEW050=

USA.gov is the U.S. government's official web portal to all federal, state and local government web resources and services.